Time;durP1;ratioP1;P1;durP2;ratioP2;P2;SDS_P1;SDS_P2;PMS_P1;PMS_P2;Temp;Humidity;BMP_temperature;BMP_pressure;BME280_temperature;BME280_humidity;BME280_pressure;Samples;Min_cycle;Max_cycle;Signal;HPM_P1;HPM_P2
2022/10/24 00:01:45;;;;;;;1.30;0.95;;;14.80;99.90;;;;;;4948940;28;20035;-31
2022/10/24 00:04:11;;;;;;;1.40;0.90;;;14.80;99.90;;;;;;4948333;28;20062;-32
2022/10/24 00:06:36;;;;;;;3.15;0.98;;;14.80;99.90;;;;;;4945584;28;20432;-31
2022/10/24 00:09:02;;;;;;;1.95;0.60;;;14.80;99.90;;;;;;4949548;28;20031;-32
2022/10/24 00:11:28;;;;;;;2.47;0.98;;;14.80;99.90;;;;;;4947747;29;20065;-34
2022/10/24 00:13:56;;;;;;;11.25;1.63;;;14.80;99.90;;;;;;4946567;28;20122;-31
2022/10/24 00:16:22;;;;;;;1.33;1.00;;;14.80;99.90;;;;;;4951085;28;20428;-30
2022/10/24 00:18:48;;;;;;;1.52;0.80;;;14.80;99.90;;;;;;4945409;28;20062;-30
2022/10/24 00:21:14;;;;;;;1.73;0.80;;;14.70;99.90;;;;;;4948396;28;20067;-34
2022/10/24 00:23:40;;;;;;;2.35;1.20;;;14.60;99.90;;;;;;4946186;29;20082;-30
2022/10/24 00:26:06;;;;;;;1.70;1.02;;;14.70;99.90;;;;;;4952133;28;20027;-31
2022/10/24 00:28:34;;;;;;;2.00;1.00;;;14.70;99.90;;;;;;4949697;28;20503;-31
2022/10/24 00:31:00;;;;;;;5.30;1.60;;;14.60;99.90;;;;;;4951465;28;20046;-32
2022/10/24 00:33:26;;;;;;;2.53;1.10;;;14.70;99.90;;;;;;4944578;29;20074;-34
2022/10/24 00:35:52;;;;;;;1.27;0.93;;;14.60;99.90;;;;;;4950754;28;20020;-31
2022/10/24 00:38:17;;;;;;;3.03;1.25;;;14.60;99.90;;;;;;4949071;29;20559;-33
2022/10/24 00:40:44;;;;;;;2.65;1.23;;;14.60;99.90;;;;;;4953509;28;20035;-30
2022/10/24 00:43:19;;;;;;;2.42;0.90;;;14.60;99.90;;;;;;4945769;28;20229;-31
2022/10/24 00:45:59;;;;;;;1.75;1.10;;;14.60;99.90;;;;;;4951660;28;20477;-34
2022/10/24 00:48:49;;;;;;;2.67;1.02;;;14.50;99.90;;;;;;4962484;28;20051;-32
2022/10/24 00:51:18;;;;;;;7.22;1.15;;;14.50;99.90;;;;;;4966341;28;20444;-31
2022/10/24 00:53:47;;;;;;;2.50;0.95;;;14.50;99.90;;;;;;4944010;29;20485;-33
2022/10/24 00:56:14;;;;;;;4.90;1.38;;;14.50;99.90;;;;;;4953134;28;20057;-31
2022/10/24 00:58:41;;;;;;;3.17;1.10;;;14.60;99.90;;;;;;4948185;28;20046;-31
2022/10/24 01:01:08;;;;;;;4.15;1.60;;;14.60;99.90;;;;;;4949971;28;20035;-31
2022/10/24 01:03:34;;;;;;;5.65;1.17;;;14.60;99.90;;;;;;4950372;28;20031;-31
2022/10/24 01:06:53;;;;;;;2.92;1.10;;;14.60;99.90;;;;;;4949900;28;20157;-33
2022/10/24 01:09:44;;;;;;;4.63;1.30;;;14.60;99.90;;;;;;4926138;29;20094;-31
2022/10/24 01:12:28;;;;;;;4.28;1.42;;;14.60;99.90;;;;;;4947947;28;20047;-33
2022/10/24 01:15:03;;;;;;;6.15;1.13;;;14.60;99.90;;;;;;4947676;28;20026;-33
2022/10/24 01:17:54;;;;;;;3.65;1.20;;;14.60;99.90;;;;;;4950658;28;20031;-32
2022/10/24 01:20:43;;;;;;;2.63;1.30;;;14.60;99.90;;;;;;4948192;28;20606;-32
2022/10/24 01:23:29;;;;;;;4.45;1.20;;;14.60;99.90;;;;;;4949282;28;20035;-31
2022/10/24 01:25:54;;;;;;;2.20;1.15;;;14.60;99.90;;;;;;4947193;28;20029;-31
2022/10/24 01:28:38;;;;;;;2.30;1.15;;;14.60;99.90;;;;;;4950021;28;20031;-31
2022/10/24 01:31:24;;;;;;;1.92;1.27;;;14.60;99.90;;;;;;4945631;28;20043;-31
2022/10/24 01:33:55;;;;;;;8.45;2.08;;;14.60;99.90;;;;;;4947129;28;20043;-32
2022/10/24 01:36:38;;;;;;;9.50;3.22;;;14.60;99.90;;;;;;4947350;28;20037;-31
2022/10/24 01:39:11;;;;;;;27.20;8.32;;;14.50;99.90;;;;;;4949962;29;20085;-33
2022/10/24 01:41:39;;;;;;;4.20;2.05;;;14.60;99.90;;;;;;4944636;28;20038;-31
2022/10/24 01:44:25;;;;;;;3.45;1.42;;;14.50;99.90;;;;;;4947089;28;20105;-31
2022/10/24 01:46:56;;;;;;;9.13;2.47;;;14.50;99.90;;;;;;4948118;28;20035;-36
2022/10/24 01:49:26;;;;;;;9.77;3.15;;;14.50;99.90;;;;;;4946261;28;20085;-30
2022/10/24 01:51:56;;;;;;;4.25;1.42;;;14.60;99.90;;;;;;4949825;28;20074;-33
2022/10/24 01:54:22;;;;;;;3.35;1.15;;;14.60;99.90;;;;;;4943270;28;20376;-31
2022/10/24 01:56:48;;;;;;;13.63;6.00;;;14.60;99.90;;;;;;4951597;28;20031;-31
2022/10/24 01:59:28;;;;;;;3.95;1.35;;;14.60;99.90;;;;;;4950741;28;20031;-30
2022/10/24 02:02:02;;;;;;;3.70;1.63;;;14.50;99.90;;;;;;4950746;28;20039;-32
2022/10/24 02:04:31;;;;;;;3.92;1.35;;;14.50;99.90;;;;;;4943781;28;20114;-32
2022/10/24 02:07:00;;;;;;;3.97;1.80;;;14.50;99.90;;;;;;4964967;28;20511;-32
2022/10/24 02:09:27;;;;;;;3.08;1.30;;;14.50;99.90;;;;;;4947283;28;20039;-33
2022/10/24 02:11:55;;;;;;;4.30;1.52;;;14.50;99.90;;;;;;4946815;28;20122;-31
2022/10/24 02:14:31;;;;;;;3.67;1.30;;;14.60;99.90;;;;;;4947232;29;20128;-31
2022/10/24 02:16:58;;;;;;;2.75;1.20;;;14.60;99.90;;;;;;4950314;28;20480;-31
2022/10/24 02:19:24;;;;;;;4.30;1.52;;;14.60;99.90;;;;;;4950535;28;20027;-30
2022/10/24 02:22:16;;;;;;;5.50;1.35;;;14.60;99.90;;;;;;4946725;28;20110;-32
2022/10/24 02:25:10;;;;;;;3.53;1.35;;;14.50;99.90;;;;;;4942977;28;20043;-32
2022/10/24 02:27:52;;;;;;;3.95;1.42;;;14.50;99.90;;;;;;4943560;28;20035;-32
2022/10/24 02:30:23;;;;;;;4.25;1.75;;;14.50;99.90;;;;;;4952214;29;20122;-31
2022/10/24 02:32:55;;;;;;;5.15;1.42;;;14.50;99.90;;;;;;4952699;28;20475;-31
2022/10/24 02:35:25;;;;;;;3.60;1.30;;;14.50;99.90;;;;;;4951751;28;20023;-35
2022/10/24 02:37:56;;;;;;;3.83;1.42;;;14.50;99.90;;;;;;4952346;28;20066;-32
2022/10/24 02:40:22;;;;;;;6.45;1.50;;;14.50;99.90;;;;;;4950810;29;20448;-30
2022/10/24 02:42:51;;;;;;;1.77;1.20;;;14.50;99.90;;;;;;4950647;28;20046;-32
2022/10/24 02:45:18;;;;;;;4.70;1.40;;;14.50;99.90;;;;;;4949330;28;20031;-31
2022/10/24 02:47:44;;;;;;;4.03;1.20;;;14.50;99.90;;;;;;4951531;28;20042;-31
2022/10/24 02:50:11;;;;;;;3.90;1.63;;;14.50;99.90;;;;;;4951121;28;20043;-33
2022/10/24 02:52:38;;;;;;;6.90;1.73;;;14.50;99.90;;;;;;4949402;28;20105;-34
2022/10/24 02:55:05;;;;;;;3.63;1.30;;;14.50;99.90;;;;;;4949439;28;20035;-32
2022/10/24 02:57:31;;;;;;;3.13;1.40;;;14.50;99.90;;;;;;4949872;28;20499;-31
2022/10/24 02:59:56;;;;;;;3.00;1.30;;;14.40;99.90;;;;;;4952013;28;20026;-32
2022/10/24 03:02:22;;;;;;;3.05;1.50;;;14.40;99.90;;;;;;4949515;28;20050;-34
2022/10/24 03:04:48;;;;;;;3.00;1.63;;;14.40;99.90;;;;;;4953827;28;20046;-34
2022/10/24 03:07:13;;;;;;;3.15;1.10;;;14.40;99.90;;;;;;4951451;28;20035;-31
2022/10/24 03:09:39;;;;;;;4.15;1.27;;;14.40;99.90;;;;;;4952829;28;20238;-32
2022/10/24 03:12:05;;;;;;;4.68;1.35;;;14.40;99.90;;;;;;4948569;28;20040;-32
2022/10/24 03:14:31;;;;;;;3.08;1.30;;;14.40;99.90;;;;;;4949480;28;20512;-30
2022/10/24 03:16:56;;;;;;;4.85;1.02;;;14.40;99.90;;;;;;4949123;29;20086;-32
2022/10/24 03:19:22;;;;;;;3.28;1.38;;;14.40;99.90;;;;;;4952978;28;20030;-30
2022/10/24 03:21:48;;;;;;;4.78;1.73;;;14.40;99.90;;;;;;4950632;28;20031;-33
2022/10/24 03:24:14;;;;;;;6.30;2.10;;;14.40;99.90;;;;;;4949170;28;20113;-31
2022/10/24 03:26:39;;;;;;;2.60;1.10;;;14.40;99.90;;;;;;4948452;28;20123;-31
2022/10/24 03:29:05;;;;;;;2.20;1.30;;;14.40;99.90;;;;;;4947960;28;20039;-32
2022/10/24 03:31:30;;;;;;;5.45;2.03;;;14.40;99.90;;;;;;4951460;28;20047;-36
2022/10/24 03:33:57;;;;;;;2.67;1.20;;;14.40;99.90;;;;;;4950985;28;20023;-32
2022/10/24 03:36:23;;;;;;;3.35;1.35;;;14.40;99.90;;;;;;4950381;28;20469;-31
2022/10/24 03:38:49;;;;;;;4.85;1.23;;;14.40;99.90;;;;;;4947015;28;20024;-34
2022/10/24 03:41:14;;;;;;;1.75;1.50;;;14.50;99.90;;;;;;4949192;28;20432;-31
2022/10/24 03:43:40;;;;;;;1.63;1.45;;;14.50;99.90;;;;;;4947824;28;20035;-31
2022/10/24 03:46:06;;;;;;;4.03;2.17;;;14.50;99.90;;;;;;4948689;29;20397;-32
2022/10/24 03:48:31;;;;;;;3.35;1.10;;;14.50;99.90;;;;;;4952509;28;20149;-31
2022/10/24 03:50:57;;;;;;;5.15;1.48;;;14.40;99.90;;;;;;4949787;29;20046;-33
2022/10/24 03:53:23;;;;;;;2.35;1.30;;;14.50;99.90;;;;;;4952094;28;20758;-31
2022/10/24 03:55:48;;;;;;;2.88;1.23;;;14.40;99.90;;;;;;4949382;28;20034;-32
2022/10/24 03:58:14;;;;;;;2.08;1.20;;;14.30;99.90;;;;;;4952827;28;20043;-31
2022/10/24 04:00:41;;;;;;;3.42;1.30;;;14.30;99.90;;;;;;4951302;28;20031;-30
2022/10/24 04:03:08;;;;;;;2.22;1.15;;;14.30;99.90;;;;;;4949078;29;20043;-31
2022/10/24 04:05:34;;;;;;;3.70;1.80;;;14.30;99.90;;;;;;4949873;28;20396;-31
2022/10/24 04:08:00;;;;;;;2.03;1.30;;;14.30;99.90;;;;;;4948574;28;20170;-34
2022/10/24 04:10:26;;;;;;;3.92;1.95;;;14.30;99.90;;;;;;4947772;28;20027;-32
2022/10/24 04:12:52;;;;;;;3.35;1.30;;;14.40;99.90;;;;;;4950682;28;20403;-32
2022/10/24 04:15:17;;;;;;;3.75;2.15;;;14.40;99.90;;;;;;4948574;28;20035;-31
2022/10/24 04:17:43;;;;;;;4.78;1.70;;;14.40;99.90;;;;;;4949380;29;20038;-30
2022/10/24 04:20:09;;;;;;;5.60;3.03;;;14.40;99.90;;;;;;4953711;28;20381;-31
2022/10/24 04:22:35;;;;;;;4.35;2.70;;;14.30;99.90;;;;;;4947872;28;20631;-32
2022/10/24 04:25:01;;;;;;;3.08;1.60;;;14.30;99.90;;;;;;4950167;28;20480;-31
2022/10/24 04:27:26;;;;;;;6.55;1.52;;;14.30;99.90;;;;;;4949705;28;20053;-32
2022/10/24 04:29:52;;;;;;;4.55;1.70;;;14.20;99.90;;;;;;4951351;28;20539;-33
2022/10/24 04:32:18;;;;;;;3.42;1.27;;;14.20;99.90;;;;;;4949886;28;20031;-32
2022/10/24 04:34:43;;;;;;;3.05;1.50;;;14.30;99.90;;;;;;4952509;28;20074;-31
2022/10/24 04:37:09;;;;;;;4.65;1.67;;;14.30;99.90;;;;;;4948822;28;20038;-35
2022/10/24 04:39:34;;;;;;;5.07;1.75;;;14.30;99.90;;;;;;4951565;28;20115;-31
2022/10/24 04:42:00;;;;;;;5.40;2.10;;;14.30;99.90;;;;;;4949714;28;20523;-31
2022/10/24 04:44:26;;;;;;;4.38;1.75;;;14.30;99.90;;;;;;4949268;28;20154;-31
2022/10/24 04:46:51;;;;;;;3.30;1.65;;;14.30;99.90;;;;;;4946590;28;20038;-33
2022/10/24 04:49:18;;;;;;;3.03;1.48;;;14.20;99.90;;;;;;4950252;28;20047;-31
2022/10/24 04:51:44;;;;;;;4.13;1.70;;;14.30;99.90;;;;;;4948153;28;20027;-31
2022/10/24 04:54:09;;;;;;;4.22;1.90;;;14.20;99.90;;;;;;4951318;28;20101;-32
2022/10/24 04:56:35;;;;;;;3.13;1.70;;;14.20;99.90;;;;;;4949937;28;20529;-33
2022/10/24 04:59:00;;;;;;;4.50;2.30;;;14.20;99.90;;;;;;4946266;29;20046;-31
2022/10/24 05:01:26;;;;;;;4.95;1.80;;;14.20;99.90;;;;;;4945226;28;20535;-33
2022/10/24 05:03:52;;;;;;;3.97;1.70;;;14.20;99.90;;;;;;4945733;28;20031;-32
2022/10/24 05:06:17;;;;;;;4.95;1.70;;;14.20;99.90;;;;;;4947833;28;20408;-30
2022/10/24 05:08:43;;;;;;;3.05;1.73;;;14.10;99.90;;;;;;4944351;28;20038;-31
2022/10/24 05:11:10;;;;;;;2.35;1.52;;;14.20;99.90;;;;;;4947528;28;20039;-31
2022/10/24 05:13:36;;;;;;;2.67;1.63;;;14.20;99.90;;;;;;4945787;28;20039;-33
2022/10/24 05:16:02;;;;;;;3.58;1.73;;;14.20;99.90;;;;;;4944103;28;20031;-32
2022/10/24 05:18:27;;;;;;;3.55;1.65;;;14.20;99.90;;;;;;4945119;29;20035;-30
2022/10/24 05:20:58;;;;;;;4.72;1.83;;;14.20;99.90;;;;;;4946153;28;20476;-34
2022/10/24 05:23:24;;;;;;;4.95;1.83;;;14.20;99.90;;;;;;4960904;28;20062;-35
2022/10/24 05:25:49;;;;;;;3.42;1.58;;;14.20;99.90;;;;;;4948352;28;20031;-31
2022/10/24 05:28:15;;;;;;;3.25;1.70;;;14.20;99.90;;;;;;4947994;29;20039;-34
2022/10/24 05:30:43;;;;;;;2.63;1.70;;;14.20;99.90;;;;;;4949294;28;20409;-30
2022/10/24 05:33:09;;;;;;;6.20;2.53;;;14.20;99.90;;;;;;4948400;28;20031;-33
2022/10/24 05:35:35;;;;;;;7.05;1.98;;;14.10;99.90;;;;;;4941584;28;20137;-31
2022/10/24 05:38:00;;;;;;;3.80;2.08;;;14.20;99.90;;;;;;4945134;29;20077;-33
2022/10/24 05:40:26;;;;;;;4.00;1.92;;;14.20;99.90;;;;;;4946130;28;20114;-32
2022/10/24 05:42:52;;;;;;;4.32;2.05;;;14.20;99.90;;;;;;4945577;28;20449;-31
2022/10/24 05:45:18;;;;;;;8.50;2.15;;;14.10;99.90;;;;;;4947528;28;20447;-31
2022/10/24 05:47:43;;;;;;;6.30;2.00;;;14.10;99.90;;;;;;4945657;28;20043;-33
2022/10/24 05:50:09;;;;;;;5.47;1.98;;;14.10;99.90;;;;;;4949220;28;20397;-31
2022/10/24 05:52:35;;;;;;;5.00;2.35;;;14.10;99.90;;;;;;4947483;28;20035;-35
2022/10/24 05:55:05;;;;;;;5.82;1.90;;;14.10;99.90;;;;;;4946442;28;20503;-31
2022/10/24 05:57:31;;;;;;;5.13;1.50;;;14.20;99.90;;;;;;4947874;28;20031;-35
2022/10/24 05:59:57;;;;;;;4.50;1.73;;;14.30;99.90;;;;;;4946852;28;20112;-32
2022/10/24 06:02:23;;;;;;;4.38;1.67;;;14.30;99.90;;;;;;4947606;28;20036;-31
2022/10/24 06:04:49;;;;;;;2.20;1.15;;;14.40;99.90;;;;;;4946698;29;20027;-31
2022/10/24 06:07:16;;;;;;;4.40;1.77;;;14.40;99.90;;;;;;4947420;28;20035;-35
2022/10/24 06:09:41;;;;;;;7.00;1.80;;;14.40;99.90;;;;;;4949193;29;20118;-33
2022/10/24 06:12:08;;;;;;;6.35;2.53;;;14.40;99.90;;;;;;4949819;28;20035;-32
2022/10/24 06:14:35;;;;;;;3.42;2.13;;;14.40;99.90;;;;;;4945666;28;20031;-33
2022/10/24 06:17:01;;;;;;;4.78;2.33;;;14.40;99.90;;;;;;4948391;28;20011;-34
2022/10/24 06:19:27;;;;;;;4.95;1.92;;;14.40;99.90;;;;;;4963872;28;20035;-31
2022/10/24 06:21:52;;;;;;;9.68;2.70;;;14.40;99.90;;;;;;4950391;28;20045;-31
2022/10/24 06:24:18;;;;;;;5.00;2.10;;;14.30;99.90;;;;;;4951026;29;20023;-32
2022/10/24 06:26:43;;;;;;;42.75;11.52;;;14.30;99.90;;;;;;4950266;28;20023;-32
2022/10/24 06:29:10;;;;;;;17.23;4.85;;;14.40;99.90;;;;;;4951732;28;20027;-31
2022/10/24 06:31:36;;;;;;;15.13;3.92;;;14.40;99.90;;;;;;4949757;28;20034;-31
2022/10/24 06:34:02;;;;;;;6.30;2.15;;;14.40;99.90;;;;;;4948997;28;20031;-33
2022/10/24 06:36:28;;;;;;;12.95;3.42;;;14.40;99.90;;;;;;4950121;28;20503;-31
2022/10/24 06:38:54;;;;;;;75.10;15.88;;;14.40;99.90;;;;;;4949768;29;20590;-32
2022/10/24 06:41:20;;;;;;;41.35;7.35;;;14.40;99.90;;;;;;4948574;28;20337;-32
2022/10/24 06:43:45;;;;;;;32.13;11.55;;;14.40;99.90;;;;;;4951373;28;20532;-30
2022/10/24 06:46:14;;;;;;;8.60;3.13;;;14.40;99.90;;;;;;4950045;28;20039;-31
2022/10/24 06:48:40;;;;;;;12.50;7.40;;;14.40;99.90;;;;;;4948351;28;20402;-32
2022/10/24 06:51:06;;;;;;;12.65;6.15;;;14.40;99.90;;;;;;4950666;28;20031;-31
2022/10/24 06:53:33;;;;;;;12.43;5.00;;;14.30;99.90;;;;;;4948857;29;20037;-31
2022/10/24 06:56:00;;;;;;;6.90;2.75;;;14.30;99.90;;;;;;4949979;28;20035;-30
2022/10/24 06:58:33;;;;;;;6.78;2.83;;;14.40;99.90;;;;;;4950447;28;20432;-30
2022/10/24 07:00:58;;;;;;;6.47;2.53;;;14.40;99.90;;;;;;4950331;28;20061;-32
2022/10/24 07:03:24;;;;;;;5.25;2.90;;;14.30;99.90;;;;;;4947940;28;20098;-33
2022/10/24 07:05:50;;;;;;;5.63;2.42;;;14.30;99.90;;;;;;4947425;28;20089;-32
2022/10/24 07:08:16;;;;;;;4.95;1.85;;;14.30;99.90;;;;;;4949776;28;20637;-30
2022/10/24 07:10:41;;;;;;;7.95;2.15;;;14.30;99.90;;;;;;4948191;28;20031;-32
2022/10/24 07:13:07;;;;;;;3.30;1.70;;;14.20;99.90;;;;;;4950334;28;20039;-31
2022/10/24 07:15:33;;;;;;;4.22;1.85;;;14.20;99.90;;;;;;4946062;28;20038;-35
2022/10/24 07:17:58;;;;;;;3.53;1.80;;;14.30;99.90;;;;;;4948706;28;20042;-34
2022/10/24 07:20:24;;;;;;;3.88;2.05;;;14.30;99.90;;;;;;4946606;28;20049;-35
2022/10/24 07:22:49;;;;;;;5.15;1.92;;;14.30;99.90;;;;;;4950159;28;20050;-32
2022/10/24 07:25:15;;;;;;;3.20;1.90;;;14.30;99.90;;;;;;4945965;28;20031;-31
2022/10/24 07:27:41;;;;;;;5.53;2.08;;;14.30;99.90;;;;;;4948579;28;20039;-30
2022/10/24 07:30:08;;;;;;;5.65;1.77;;;14.30;99.90;;;;;;4964452;28;20126;-32
2022/10/24 07:32:33;;;;;;;3.55;1.30;;;14.40;99.90;;;;;;4947637;28;20028;-31
2022/10/24 07:34:59;;;;;;;2.22;1.23;;;14.40;99.90;;;;;;4949914;28;20043;-33
2022/10/24 07:37:25;;;;;;;4.13;1.75;;;14.40;99.90;;;;;;4947948;28;20480;-31
2022/10/24 07:39:51;;;;;;;3.90;1.40;;;14.40;99.90;;;;;;4949576;28;20031;-31
2022/10/24 07:42:17;;;;;;;7.38;1.77;;;14.40;99.90;;;;;;4948849;28;20866;-34
2022/10/24 07:44:43;;;;;;;2.47;1.40;;;14.40;99.90;;;;;;4949392;29;20400;-34
2022/10/24 07:47:10;;;;;;;5.00;1.70;;;14.30;99.90;;;;;;4949372;28;20661;-32
2022/10/24 07:49:37;;;;;;;4.95;1.98;;;14.30;99.90;;;;;;4949828;28;20042;-33
2022/10/24 07:52:04;;;;;;;2.35;1.25;;;14.30;99.90;;;;;;4947164;28;20035;-31
2022/10/24 07:54:29;;;;;;;3.70;1.25;;;14.30;99.90;;;;;;4947848;29;20034;-32
2022/10/24 07:56:55;;;;;;;2.58;1.33;;;14.30;99.90;;;;;;4950288;29;20019;-32
2022/10/24 07:59:21;;;;;;;3.20;1.20;;;14.30;99.90;;;;;;4950629;28;20019;-31
2022/10/24 08:01:46;;;;;;;3.85;1.30;;;14.30;99.90;;;;;;4946550;28;20047;-32
2022/10/24 08:04:12;;;;;;;3.88;1.23;;;14.30;99.90;;;;;;4946227;28;20485;-31
2022/10/24 08:06:39;;;;;;;5.97;1.45;;;14.30;99.90;;;;;;4945423;28;20121;-32
2022/10/24 08:09:05;;;;;;;5.15;1.60;;;14.30;99.90;;;;;;4964548;28;20496;-34
2022/10/24 08:11:31;;;;;;;8.68;1.75;;;14.30;99.90;;;;;;4944021;28;20027;-34
2022/10/24 08:13:57;;;;;;;3.13;1.80;;;14.30;99.90;;;;;;4947875;28;21627;-34
2022/10/24 08:16:23;;;;;;;2.20;1.10;;;14.30;99.90;;;;;;4948082;28;20074;-31
2022/10/24 08:18:51;;;;;;;2.50;1.30;;;14.20;99.90;;;;;;4951231;28;20027;-32
2022/10/24 08:21:19;;;;;;;3.53;1.30;;;14.30;99.90;;;;;;4952215;28;20058;-32
2022/10/24 08:23:46;;;;;;;2.22;1.23;;;14.30;99.90;;;;;;4953405;28;20035;-36
2022/10/24 08:26:15;;;;;;;2.95;1.40;;;14.30;99.90;;;;;;4960601;28;20039;-32
2022/10/24 08:28:42;;;;;;;2.78;1.30;;;14.30;99.90;;;;;;4951121;28;20162;-31
2022/10/24 08:31:10;;;;;;;6.07;1.67;;;14.30;99.90;;;;;;4946629;28;20484;-31
2022/10/24 08:33:37;;;;;;;2.45;1.52;;;14.30;99.90;;;;;;4949534;28;20042;-33
2022/10/24 08:36:10;;;;;;;5.90;1.52;;;14.30;99.90;;;;;;4948851;28;20046;-31
2022/10/24 08:38:36;;;;;;;4.97;1.77;;;14.30;99.90;;;;;;4948018;28;20046;-33
2022/10/24 08:41:01;;;;;;;3.60;2.10;;;14.40;99.90;;;;;;4947705;28;20031;-31
2022/10/24 08:43:27;;;;;;;6.90;1.90;;;14.40;99.90;;;;;;4949859;28;20511;-32
2022/10/24 08:45:56;;;;;;;4.38;2.00;;;14.40;99.90;;;;;;4946616;28;20078;-31
2022/10/24 08:48:27;;;;;;;3.90;1.30;;;14.40;99.90;;;;;;4948755;28;20042;-32
2022/10/24 08:51:20;;;;;;;1.48;1.25;;;14.40;99.90;;;;;;4948506;28;20031;-33
2022/10/24 08:53:50;;;;;;;3.92;1.50;;;14.40;99.90;;;;;;4947949;28;20658;-32
2022/10/24 08:56:15;;;;;;;5.25;1.60;;;14.40;99.90;;;;;;4947354;29;20114;-31
2022/10/24 08:58:44;;;;;;;5.45;1.85;;;14.40;99.90;;;;;;4948214;28;20131;-31
2022/10/24 09:01:22;;;;;;;4.50;1.67;;;14.40;99.90;;;;;;4948098;28;20413;-31
2022/10/24 09:03:49;;;;;;;;;;;14.40;99.90;;;;;;4948672;28;20042;-32
2022/10/24 09:06:27;;;;;;;3.30;1.40;;;14.40;99.90;;;;;;4948068;28;19911;-31
2022/10/24 09:09:03;;;;;;;5.68;1.75;;;14.40;99.90;;;;;;4947983;28;20031;-31
2022/10/24 09:11:38;;;;;;;3.03;1.92;;;14.40;99.90;;;;;;4948917;28;20032;-31
2022/10/24 09:14:15;;;;;;;5.75;1.60;;;14.40;99.90;;;;;;4949110;28;20464;-30
2022/10/24 09:16:44;;;;;;;3.42;1.10;;;14.40;99.90;;;;;;4945175;28;20034;-34
2022/10/24 09:19:15;;;;;;;3.55;1.33;;;14.40;99.90;;;;;;4947223;28;20511;-31
2022/10/24 09:21:42;;;;;;;2.97;1.58;;;14.40;99.90;;;;;;4950548;28;20033;-33
2022/10/24 09:24:37;;;;;;;6.40;1.70;;;14.40;99.90;;;;;;4946693;28;20046;-33
2022/10/24 09:27:06;;;;;;;3.78;1.40;;;14.40;99.90;;;;;;4935751;28;20089;-31
2022/10/24 09:29:32;;;;;;;4.57;1.40;;;14.40;99.90;;;;;;4945251;28;20078;-32
2022/10/24 09:31:59;;;;;;;4.65;1.52;;;14.50;99.90;;;;;;4944991;28;20032;-31
2022/10/24 09:34:25;;;;;;;2.20;1.33;;;14.40;99.90;;;;;;4943084;28;20031;-34
2022/10/24 09:36:51;;;;;;;3.70;1.55;;;14.40;99.90;;;;;;4961224;28;20035;-31
2022/10/24 09:39:31;;;;;;;3.30;1.80;;;14.50;99.90;;;;;;4945362;28;20031;-35
2022/10/24 09:41:58;;;;;;;4.15;1.50;;;14.50;99.90;;;;;;4943556;29;20028;-33
2022/10/24 09:44:36;;;;;;;2.88;1.60;;;14.50;99.90;;;;;;4947855;28;20018;-32
2022/10/24 09:47:04;;;;;;;3.78;1.60;;;14.50;99.90;;;;;;4944871;29;20504;-31
2022/10/24 09:49:33;;;;;;;;;;;14.50;99.90;;;;;;4949211;28;20395;-33
2022/10/24 09:52:15;;;;;;;2.47;1.40;;;14.60;99.90;;;;;;4943998;28;19914;-30
2022/10/24 09:54:42;;;;;;;2.15;1.27;;;14.60;99.90;;;;;;4942030;28;20178;-33
2022/10/24 09:57:11;;;;;;;3.47;1.67;;;14.50;99.90;;;;;;4945227;28;20035;-31
2022/10/24 09:59:43;;;;;;;4.68;1.75;;;14.50;99.90;;;;;;4944427;28;20035;-31
2022/10/24 10:02:21;;;;;;;3.92;2.00;;;14.50;99.90;;;;;;4943919;28;20043;-30
2022/10/24 10:04:58;;;;;;;6.10;1.88;;;14.50;99.90;;;;;;4946065;28;20035;-30
2022/10/24 10:07:32;;;;;;;4.05;1.70;;;14.50;99.90;;;;;;4943811;28;20054;-33
2022/10/24 10:10:39;;;;;;;5.93;1.63;;;14.50;99.90;;;;;;4945539;28;20035;-35
2022/10/24 10:13:21;;;;;;;2.67;1.58;;;14.60;99.90;;;;;;4948040;28;20035;-34
2022/10/24 10:15:50;;;;;;;3.63;1.38;;;14.70;99.90;;;;;;4942541;28;20043;-30
2022/10/24 10:18:45;;;;;;;2.85;1.45;;;14.70;99.90;;;;;;4944614;28;20031;-31
2022/10/24 10:21:24;;;;;;;2.25;1.48;;;14.70;99.90;;;;;;4943337;28;20485;-32
2022/10/24 10:23:55;;;;;;;6.03;1.60;;;14.70;99.90;;;;;;4946393;28;20042;-31
2022/10/24 10:26:28;;;;;;;4.95;1.48;;;14.70;99.90;;;;;;4947594;28;20063;-31
2022/10/24 10:28:59;;;;;;;4.13;1.52;;;14.80;99.90;;;;;;4946018;28;20023;-31
2022/10/24 10:31:42;;;;;;;4.63;1.50;;;14.80;99.90;;;;;;4947800;28;20043;-31
2022/10/24 10:34:38;;;;;;;4.95;1.30;;;14.80;99.90;;;;;;4947140;28;20867;-30
2022/10/24 10:37:25;;;;;;;3.60;1.50;;;14.80;99.90;;;;;;4947010;28;20488;-30
2022/10/24 10:39:59;;;;;;;2.53;1.40;;;14.70;99.90;;;;;;4945343;28;20167;-30
2022/10/24 10:42:46;;;;;;;4.20;1.65;;;14.70;99.90;;;;;;4946334;29;20209;-31
2022/10/24 10:45:33;;;;;;;1.67;1.35;;;14.80;99.90;;;;;;4948020;28;20042;-30
2022/10/24 10:48:28;;;;;;;2.58;1.38;;;14.70;99.90;;;;;;4947976;28;20039;-31
2022/10/24 10:51:02;;;;;;;2.45;1.30;;;14.70;99.90;;;;;;4950485;28;20480;-30
2022/10/24 10:53:51;;;;;;;1.85;1.55;;;14.70;99.90;;;;;;4948475;28;20117;-33
2022/10/24 10:56:17;;;;;;;2.75;1.48;;;14.70;99.90;;;;;;4951184;28;20074;-30
2022/10/24 10:59:08;;;;;;;5.43;1.40;;;14.60;99.90;;;;;;4951576;28;20030;-29
2022/10/24 11:01:44;;;;;;;3.35;1.73;;;14.60;99.90;;;;;;4949095;28;20405;-30
2022/10/24 11:04:40;;;;;;;4.55;1.77;;;14.60;99.90;;;;;;4950546;28;20031;-30
2022/10/24 11:07:11;;;;;;;2.38;1.75;;;14.60;99.90;;;;;;4951912;28;20031;-31
2022/10/24 11:09:43;;;;;;;2.17;1.13;;;14.60;99.90;;;;;;4947735;28;20035;-31
2022/10/24 11:12:18;;;;;;;2.35;1.17;;;14.50;99.90;;;;;;4950241;28;20101;-32
2022/10/24 11:14:54;;;;;;;1.75;1.05;;;14.50;99.90;;;;;;4950327;28;20023;-30
2022/10/24 11:17:25;;;;;;;2.47;1.27;;;14.50;99.90;;;;;;4948756;28;20696;-31
2022/10/24 11:20:20;;;;;;;3.58;1.23;;;14.40;99.90;;;;;;4950469;28;20477;-29
2022/10/24 11:23:18;;;;;;;2.90;1.10;;;14.50;99.90;;;;;;4947631;28;20035;-32
2022/10/24 11:25:53;;;;;;;;;;;14.50;99.90;;;;;;4951822;28;20505;-31
2022/10/24 11:28:21;;;;;;;4.20;1.85;;;14.50;99.90;;;;;;4949745;28;19918;-33
2022/10/24 11:31:07;;;;;;;1.83;0.90;;;14.50;99.90;;;;;;4949120;28;20076;-30
2022/10/24 11:33:41;;;;;;;2.20;1.30;;;14.40;99.90;;;;;;4948684;28;20031;-31
2022/10/24 11:36:13;;;;;;;7.10;1.63;;;14.40;99.90;;;;;;4950086;28;20067;-31
2022/10/24 11:38:52;;;;;;;5.53;1.27;;;14.40;99.90;;;;;;4948437;28;20027;-32
2022/10/24 11:41:47;;;;;;;2.72;1.55;;;14.40;99.90;;;;;;4949738;28;20039;-31
2022/10/24 11:44:38;;;;;;;1.95;1.35;;;14.40;99.90;;;;;;4946518;28;20109;-31
2022/10/24 11:47:29;;;;;;;2.97;1.40;;;14.30;99.90;;;;;;4948017;28;20469;-33
2022/10/24 11:50:16;;;;;;;2.25;1.45;;;14.30;99.90;;;;;;4947831;29;20130;-33
2022/10/24 11:52:47;;;;;;;3.65;1.30;;;14.30;99.90;;;;;;4949056;28;20042;-30
2022/10/24 11:55:20;;;;;;;4.28;1.38;;;14.30;99.90;;;;;;5079450;23;20081;-31
2022/10/24 11:57:53;;;;;;;5.75;1.48;;;14.30;99.90;;;;;;4972787;28;20364;-30
2022/10/24 12:00:26;;;;;;;3.72;1.42;;;14.30;99.90;;;;;;4973204;28;20400;-33
2022/10/24 12:03:36;;;;;;;5.65;2.63;;;14.30;99.90;;;;;;4971703;28;20505;-31
2022/10/24 12:06:16;;;;;;;1.25;1.05;;;14.30;99.90;;;;;;4971702;28;20027;-31
2022/10/24 12:08:48;;;;;;;2.55;1.70;;;14.30;99.90;;;;;;4971456;28;20027;-31
2022/10/24 12:11:35;;;;;;;1.25;1.00;;;14.30;99.90;;;;;;4972604;28;20035;-29
2022/10/24 12:14:24;;;;;;;2.70;1.30;;;14.30;99.90;;;;;;4970749;28;20129;-30
2022/10/24 12:17:14;;;;;;;2.67;1.40;;;14.20;99.90;;;;;;4971477;28;20053;-30
2022/10/24 12:19:42;;;;;;;1.85;1.30;;;14.20;99.90;;;;;;4968409;28;20031;-30
2022/10/24 12:22:13;;;;;;;;;;;14.20;99.90;;;;;;4970359;28;20429;-30
2022/10/24 12:24:40;;;;;;;4.72;1.63;;;14.20;99.90;;;;;;4974157;28;19918;-31
2022/10/24 12:27:35;;;;;;;1.67;1.30;;;14.20;99.90;;;;;;4971853;28;20031;-31
2022/10/24 12:30:20;;;;;;;5.38;1.20;;;14.20;99.90;;;;;;4970118;28;20031;-34
2022/10/24 12:32:50;;;;;;;2.78;1.50;;;14.20;99.90;;;;;;4969685;28;20086;-30
2022/10/24 12:35:26;;;;;;;4.43;1.45;;;14.10;99.90;;;;;;4971434;28;20054;-33
2022/10/24 12:37:53;;;;;;;1.20;1.10;;;14.20;99.90;;;;;;4969790;28;20037;-30
2022/10/24 12:40:44;;;;;;;6.88;1.55;;;14.10;99.90;;;;;;4971161;28;20102;-31
2022/10/24 12:43:28;;;;;;;4.45;1.75;;;14.10;99.90;;;;;;4967128;28;20385;-31
2022/10/24 12:45:59;;;;;;;4.00;1.88;;;14.10;99.90;;;;;;4964671;28;20042;-30
2022/10/24 12:48:37;;;;;;;1.30;1.15;;;14.10;99.90;;;;;;4952991;28;20043;-30
2022/10/24 12:51:23;;;;;;;4.53;1.30;;;14.00;99.90;;;;;;4969703;28;20466;-32
2022/10/24 12:54:14;;;;;;;3.60;1.30;;;14.00;99.90;;;;;;4960857;28;20442;-32
2022/10/24 12:56:52;;;;;;;1.48;1.38;;;14.00;99.90;;;;;;4968165;28;20439;-30
2022/10/24 12:59:31;;;;;;;1.02;0.80;;;14.00;99.90;;;;;;4969000;28;20034;-31
2022/10/24 13:02:12;;;;;;;1.77;1.00;;;14.00;99.90;;;;;;4970755;28;20077;-30
2022/10/24 13:04:56;;;;;;;2.65;0.90;;;14.00;99.90;;;;;;4971033;28;20503;-30
2022/10/24 13:07:28;;;;;;;1.20;1.10;;;14.00;99.90;;;;;;4970402;28;20026;-30
2022/10/24 13:10:22;;;;;;;2.50;1.55;;;14.00;99.90;;;;;;4970594;28;20041;-31